Marola — IBFL — position and weather

sailwx.info

Track history (hours):
 
Tides and Currents Weather Stations Pressure Air Temp Water Temp Dewpoint Dewpoint Depression Visibility Wind Speed Wind Dir Waves Ship Positions

Marola

Last reported at 2017-Feb-23 13:33 UTC. Time now 2017-Feb-23 13:56 UTC.
Position S 24°36' W 045°11'.

Length 180 m; draft 7 m.

Type: Ship (hazmat cat B). MMSI: 247094900.

Date/timePositionNaut miles runAvg speedWind from/ knotsBaromVisibWave heightAir tempDewpointWater temp
2017-Feb-23 13:33S 24°36' W 045°11'1515.0
2017-Feb-23 12:33S 24°36' W 045°27'1514.9
2017-Feb-23 11:33S 24°36' W 045°44'1515.3
2017-Feb-23 10:33S 24°36' W 046°01'1914.8
2017-Feb-23 09:17S 24°23' W 046°15'1115.7
2017-Feb-23 08:33S 24°13' W 046°22'1312.9
2017-Feb-23 07:34S 24°01' W 046°20'  
2017-Feb-19 22:31S 23°57' W 046°18'6 6.7
2017-Feb-19 21:33S 24°03' W 046°21'9 9.0
2017-Feb-19 20:33S 24°12' W 046°23'1414.3
2017-Feb-19 19:33S 24°24' W 046°14'1413.9
2017-Feb-19 18:33S 24°26' W 045°59'1514.8
2017-Feb-19 17:33S 24°29' W 045°43'1414.5
2017-Feb-19 16:33S 24°33' W 045°28'1414.2
2017-Feb-19 15:33S 24°36' W 045°13'  
Track history (hours):
 
Tides and Currents Weather Stations Pressure Air Temp Water Temp Dewpoint Dewpoint Depression Visibility Wind Speed Wind Dir Waves Ship Positions

Marola

Last reported at 2017-Feb-23 13:33 UTC. Time now 2017-Feb-23 13:56 UTC.
Position S 24°36' W 045°11'.

Length 180 m; draft 7 m.

Type: Ship (hazmat cat B). MMSI: 247094900.

Date/timePositionNaut miles runAvg speedWind from/ knotsBaromVisibWave heightAir tempDewpointWater temp
2017-Feb-23 13:33S 24°36' W 045°11'1515.0
2017-Feb-23 12:33S 24°36' W 045°27'1514.9
2017-Feb-23 11:33S 24°36' W 045°44'1515.3
2017-Feb-23 10:33S 24°36' W 046°01'1914.8
2017-Feb-23 09:17S 24°23' W 046°15'1115.7
2017-Feb-23 08:33S 24°13' W 046°22'1312.9
2017-Feb-23 07:34S 24°01' W 046°20'  
2017-Feb-19 22:31S 23°57' W 046°18'6 6.7
2017-Feb-19 21:33S 24°03' W 046°21'9 9.0
2017-Feb-19 20:33S 24°12' W 046°23'1414.3
2017-Feb-19 19:33S 24°24' W 046°14'1413.9
2017-Feb-19 18:33S 24°26' W 045°59'1514.8
2017-Feb-19 17:33S 24°29' W 045°43'1414.5
2017-Feb-19 16:33S 24°33' W 045°28'1414.2
2017-Feb-19 15:33S 24°36' W 045°13'  

Dump ship's entire track history